Kapalua Airport Lahaina US
ICAO: PHJH
IATA:
Category: Medium
Scheduled Services:

Elevation: 256 ft
TransAlt. 0 ft.

Airport Communications:
AWOS:118.525
MAUI RDO:123.6
CTAF/UNICOM:122.7

PHJH Zoom In..

If you have problems with the map follow the link
https://www.worldairports.se/pages/airport.php?
ICAO=PHJH

Runways:

(A) RW 02 length 3000 ft width 100 ft
---- / hdg 17

(B) RW 20 length 3000 ft width 100 ft
---- / hdg 197

Location; PHJH
Day. 19 / Time. 01.45 Zulu
* Altimeter: 30.02
* Temperature: 21° c. 69.8°f.
* Wind from: 010° Speed 11 kn with Gusts up to 22 kn.
Dewpoint: 20° c.
Visibility: 7 Statute Miles.
Clouds: Scattered 1500 ft.
Clouds: Broken 2500 ft.
Conditions: Light Rain.

PHJH 190145Z 01011G22KT 7SM -RA SCT015 BKN025 21/20 A3002


Wind From 010°
Speed 11 kn.

 
 
jpsmedia worldairports.se 2020   terms of use